Strona główna
METAR-TAF:

METAR-TAF

Lotnisko :

Châlons-en-Champagne, Francja

Szerokość geograficzna: 48-46-34N, Długość geograficzna: 004-11-04E, wysokość: 179 m

Aktualna obserwacja pogody

Raport powstał 34 minut temu, godzina 03:30 UTC
Wiatr 16 kt od południe
Temperatura 4°C
Wilgotność 93%
Ciśnienie 1013 hPa
Widzialność 10 km lub więcej
słaby deszcz

METAR: LFOK 110330Z AUTO 18016KT 9999 -RA FEW026/// BKN048/// BKN054/// ///CB 04/03 Q1013 TEMPO 3000 RA OVC005

czas: 05:04 (04:04 UTC)

Prognoza

Raport powstał 31 minut temu, godzina 03:33 UTC
Prognoza ważna od 11 godzina 03 UTC do 11 godzina 24 UTC
Wiatr 13 kt od południe
Widzialność 10 km lub więcej
Przerywane chmury na wysokości 4000 ft
Przejściowo
od 11 godzina 03 UTC do 11 godzina 24 UTC
Widzialność: 3000 m
Zachmurzenie całkowite na wysokości 500 ft
Rozproszone chmury na wysokości 3000 ft, Cumulonimbus.
deszcz

TAF: LFOK 110333Z 1103/1124 18013KT 9999 BKN040 TEMPO 1103/1124 3000 RA OVC005 SCT030CB

Obserwacja i prognoza pogody dla ponad 4000 lotnisk (raport METAR i TAF).

Dostępne stacje oznaczono żółtymi i czerwonymi punktami na mapie.

Najedź kursorem aby zobaczyć nazwę stacji.

Kliknij aby zobaczyć obserwacje i prognozy pogody.

Aby zmienić mapę: kliknij na zielony przycisk z czarnym krzyżykiem, aby powiększyć; na zielony przycisk z myślnikiem, aby pomniejszyć; na zielone strzałki, aby przejść do map sąsiednich.


METAR-TAF: